• Join FlightAware (Why Join?)
  • Login
  • US Flag 
11:40AM EST


 

Airport Tracker/Info


-or-


 

Live Flight TrackerFlight Track Log ✈ EJA640 ✈ 27-Sep-2013 ✈ KFAT - KBFI

Flight Track Log - Related Links

Times and Time Zones

All times are in EDT time to prevent confusion due to time zone crossing. See the EJA640 flight status page for this flight to view local times or setup timezone preferences in your user account.

Time Position Orientation Groundspeed Altitude Reporting Facility
EDT Latitude Longitude Course Direction KTS MPH feet Rate Location/Type
08:01PM 35.6731 -120.7825 32° Northeast 344 396 17,000  Level Oakland Center
08:02PM 35.7544 -120.7206 32° Northeast 340 391 17,000  Level Oakland Center
08:03PM 35.8342 -120.6575 33° Northeast 341 392 17,000  Level Oakland Center
08:04PM 35.9125 -120.5958 33° Northeast 335 386 17,000  Level Oakland Center
08:05PM 35.9911 -120.5336 33° Northeast 334 384 17,000  Level Oakland Center
08:06PM 36.0719 -120.4678 33° Northeast 344 396 17,000  Level Oakland Center
08:08PM 36.1508 -120.4058 32° Northeast 336 387 17,000 -60 Level Oakland Center
08:09PM 36.2447 -120.3297 33° Northeast 335 386 16,900 -360 Descending Oakland Center
08:10PM 36.3203 -120.2694 33° Northeast 322 371 16,300 -780 Descending Oakland Center
08:11PM 36.3917 -120.2114 33° Northeast 309 356 15,400 -180 Descending Oakland Center
08:13PM 36.5243 -120.2324 34° Northeast  Level Estimated
08:20PM 37.0043 -120.3091 32° Northeast  Level Estimated
08:21PM 37.0729 -120.3201 North  Level Estimated
08:22PM 37.1415 -120.3312 North  Level Estimated
08:23PM 37.2094 -120.3421 353° North  Level Estimated
08:24PM 37.2773 -120.3531 353° North  Level Estimated
08:25PM 37.3452 -120.3641 353° North  Level Estimated
08:26PM 37.4131 -120.3751 353° North  Level Estimated
08:27PM 37.4809 -120.3862 353° North  Level Estimated
08:28PM 37.5488 -120.3972 353° North  Level Estimated
08:29PM 37.6167 -120.4083 353° North  Level Estimated
08:30PM 37.6846 -120.4194 353° North  Level Estimated
08:31PM 37.7525 -120.4305 353° North  Level Estimated
08:32PM 37.8204 -120.4417 353° North  Level Estimated
08:33PM 37.8882 -120.4528 353° North  Level Estimated
08:34PM 37.9561 -120.4640 353° North  Level Estimated
08:35PM 38.0240 -120.4752 353° North  Level Estimated
08:36PM 38.0919 -120.4864 353° North  Level Estimated
08:37PM 38.1598 -120.4977 353° North  Level Estimated
08:38PM 38.2276 -120.5090 353° North  Level Estimated
08:39PM 38.2955 -120.5202 353° North  Level Estimated
08:40PM 38.3634 -120.5316 353° North  Level Estimated
08:41PM 38.4313 -120.5429 353° North  Level Estimated
08:42PM 38.4991 -120.5542 353° North  Level Estimated
08:43PM 38.5670 -120.5656 353° North  Level Estimated
08:44PM 38.6349 -120.5770 353° North  Level Estimated
08:45PM 38.7027 -120.5884 353° North  Level Estimated
08:46PM 38.7706 -120.5999 353° North  Level Estimated
08:47PM 38.8385 -120.6113 353° North  Level Estimated
08:48PM 38.9063 -120.6228 352° North  Level Estimated
08:49PM 38.9742 -120.6343 352° North  Level Estimated
08:50PM 39.0420 -120.6458 352° North  Level Estimated
08:51PM 39.1099 -120.6574 352° North  Level Estimated
08:52PM 39.1778 -120.6690 352° North  Level Estimated
08:53PM 39.2456 -120.6805 352° North  Level Estimated
08:54PM 39.3135 -120.6922 352° North  Level Estimated
08:55PM 39.3814 -120.7038 352° North  Level Estimated
08:56PM 39.4492 -120.7155 352° North  Level Estimated
08:57PM 39.5171 -120.7271 352° North  Level Estimated
08:58PM 39.5849 -120.7389 352° North  Level Estimated
08:59PM 39.6528 -120.7506 352° North  Level Estimated
09:00PM 39.7206 -120.7623 352° North  Level Estimated
09:01PM 39.7885 -120.7741 352° North  Level Estimated
09:02PM 39.8563 -120.7859 352° North  Level Estimated
09:03PM 39.9242 -120.7977 352° North  Level Estimated
09:04PM 39.9920 -120.8096 352° North  Level Estimated
09:05PM 40.0598 -120.8215 352° North  Level Estimated
09:06PM 40.1277 -120.8334 352° North  Level Estimated
09:07PM 40.1955 -120.8453 352° North  Level Estimated
09:08PM 40.2634 -120.8572 352° North  Level Estimated
09:09PM 40.3312 -120.8692 352° North  Level Estimated
09:10PM 40.3991 -120.8812 352° North  Level Estimated
09:11PM 40.4669 -120.8932 352° North  Level Estimated
09:12PM 40.5347 -120.9052 352° North  Level Estimated
09:13PM 40.6026 -120.9173 352° North  Level Estimated
09:14PM 40.6704 -120.9294 352° North  Level Estimated
09:15PM 40.7382 -120.9415 352° North  Level Estimated
09:16PM 40.8060 -120.9536 352° North  Level Estimated
09:17PM 40.8739 -120.9658 352° North  Level Estimated
09:18PM 40.9417 -120.9780 352° North  Level Estimated
09:19PM 41.0095 -120.9902 352° North  Level Estimated
09:20PM 41.0774 -121.0024 352° North  Level Estimated
09:21PM 41.1452 -121.0147 352° North  Level Estimated
09:22PM 41.2130 -121.0269 352° North  Level Estimated
09:23PM 41.2808 -121.0393 352° North  Level Estimated
09:24PM 41.3487 -121.0516 352° North  Level Estimated
09:24PM 36.8511 -119.8361 352° North 228 262 7,200  Level Oakland Center
09:25PM 41.4165 -121.0640 352° North  Level Estimated
09:25PM 36.9000 -119.9111 309° West 271 312 9,900  Level Oakland Center
09:26PM 41.4843 -121.0763 352° North  Level Estimated
09:26PM 36.9508 -120.0017 305° West 320 368 10,600  Level Oakland Center
09:27PM 41.5521 -121.0888 352° North  Level Estimated
09:27PM 36.9603 -120.1131 276° West 325 374 12,100  Level Oakland Center
09:28PM 41.6199 -121.1012 352° North  Level Estimated
09:28PM 36.9678 -120.2317 275° West 327 376 13,700  Level Oakland Center
09:29PM 41.6877 -121.1137 352° North  Level Estimated
09:29PM 36.9756 -120.3483 275° West 336 387 14,000  Level Oakland Center
09:30PM 36.9828 -120.4697 274° West 349 402 14,000  Level Oakland Center
09:31PM 36.9900 -120.5936 274° West 354 407 14,000  Level Oakland Center
09:32PM 36.9981 -120.7161 275° West 354 407 14,000 -540 Level Oakland Center
09:33PM 37.0056 -120.8364 275° West 348 400 13,000 -1,260 Descending Oakland Center
09:34PM 37.0119 -120.9597 274° West 352 405 11,500 -1,440 Descending Oakland Center
09:35PM 37.0197 -121.0800 275° West 350 403 10,100 -780 Descending Oakland Center
09:36PM 37.0267 -121.2161 274° West 342 394 10,000 -60 Descending Oakland Center
09:37PM 37.0333 -121.3322 274° West 336 387 10,000 -300 Level Oakland Center
09:38PM 37.0383 -121.4425 273° West 323 372 9,500 -1,020 Descending Oakland Center
09:39PM 37.0700 -121.5264 295° West 278 320 8,000 -1,560 Descending Oakland Center
09:40PM 37.1128 -121.6061 304° West 263 303 6,400 -1,500 Descending Oakland Center
09:41PM 37.1467 -121.6825 299° West 267 307 5,000 -1,020 Descending Oakland Center
09:42PM 37.1858 -121.7456 308° West 245 282 4,400 -1,020 Descending Oakland Center
09:43PM 37.2392 -121.7964 323° Northwest 214 246 3,000 -1,140 Descending Oakland Center
09:44PM 37.2772 -121.8372 320° Northwest 195 224 2,100 -900 Descending Oakland Center
09:45PM 37.3114 -121.8764 318° Northwest 180 207 1,200 -780 Descending Oakland Center
09:46PM 37.3342 -121.9011 319° Northwest 133 153 600 5,220 Descending Oakland Center
09:47PM 37.3561 -121.9253 319° Northwest 115 132 12,000 11,160 Climbing Oakland Center
09:49PM 37.3500 -121.9167 North  Level FlightAware Approximate
09:56PM 37.9365 -121.9358 North  Level Estimated
09:57PM 38.0203 -121.9385 North  Level Estimated
09:58PM 38.1041 -121.9413 North  Level Estimated
09:59PM 38.1879 -121.9441 North  Level Estimated
10:00PM 38.2717 -121.9468 North  Level Estimated
10:01PM 38.3555 -121.9496 North  Level Estimated
10:02PM 38.4393 -121.9524 North  Level Estimated
10:03PM 38.5230 -121.9552 North  Level Estimated
10:04PM 38.6068 -121.9580 North  Level Estimated
10:05PM 38.6906 -121.9608 North  Level Estimated
10:06PM 38.7744 -121.9636 North  Level Estimated
10:07PM 38.8582 -121.9664 North  Level Estimated
10:08PM 38.9420 -121.9693 North  Level Estimated
10:09PM 39.0258 -121.9721 North  Level Estimated
10:10PM 39.1096 -121.9749 North  Level Estimated
10:11PM 39.1934 -121.9778 North  Level Estimated
10:12PM 39.2771 -121.9806 North  Level Estimated
10:13PM 39.3609 -121.9835 North  Level Estimated
10:14PM 39.4447 -121.9864 North  Level Estimated
10:15PM 39.5285 -121.9892 North  Level Estimated
10:16PM 39.6123 -121.9921 North  Level Estimated
10:17PM 39.6961 -121.9950 North  Level Estimated
10:18PM 39.7799 -121.9979 North  Level Estimated
10:19PM 39.8637 -122.0008 North  Level Estimated
10:20PM 39.9474 -122.0037 North  Level Estimated
10:21PM 40.0312 -122.0066 North  Level Estimated
10:22PM 40.1150 -122.0095 North  Level Estimated
10:23PM 40.1988 -122.0125 North  Level Estimated
10:24PM 40.2826 -122.0154 North  Level Estimated
10:25PM 40.3663 -122.0183 North  Level Estimated
10:26PM 40.4501 -122.0213 North  Level Estimated
10:27PM 40.5339 -122.0242 North  Level Estimated
10:28PM 40.6177 -122.0272 North  Level Estimated
10:29PM 40.7015 -122.0302 North  Level Estimated
10:30PM 40.7852 -122.0332 North  Level Estimated
10:31PM 40.8690 -122.0361 North  Level Estimated
10:32PM 40.9528 -122.0391 North  Level Estimated
10:33PM 41.0366 -122.0422 North  Level Estimated
10:34PM 41.1203 -122.0452 North  Level Estimated
10:35PM 41.2041 -122.0482 North  Level Estimated
10:36PM 41.2879 -122.0512 North  Level Estimated
10:37PM 41.3717 -122.0542 North  Level Estimated
10:38PM 41.4555 -122.0573 North  Level Estimated
10:39PM 41.5392 -122.0603 North  Level Estimated
10:40PM 41.6230 -122.0634 North  Level Estimated
10:41PM 41.7068 -122.0665 North  Level Estimated
10:42PM 41.7906 -122.0695 North  Level Estimated
10:43PM 41.8744 -122.0726 North  Level Estimated
10:44PM 41.9581 -122.0757 North  Level Estimated
10:45PM 42.0419 -122.0788 North  Level Estimated
10:46PM 42.1257 -122.0819 North  Level Estimated
10:47PM 42.2095 -122.0850 North  Level Estimated
10:48PM 42.2933 -122.0881 North  Level Estimated
10:49PM 42.3770 -122.0913 North  Level Estimated
10:50PM 42.4608 -122.0944 North  Level Estimated
10:51PM 42.5446 -122.0976 North  Level Estimated
10:52PM 42.6284 -122.1007 North  Level Estimated
10:53PM 42.7122 -122.1039 North  Level Estimated
10:54PM 42.7960 -122.1070 North  Level Estimated
10:55PM 42.8797 -122.1102 North  Level Estimated
10:56PM 42.9635 -122.1134 North  Level Estimated
10:57PM 43.0473 -122.1166 North  Level Estimated
10:58PM 43.1311 -122.1198 North  Level Estimated
10:59PM 43.2149 -122.1230 North  Level Estimated
11:00PM 43.2986 -122.1263 North  Level Estimated
11:01PM 43.3824 -122.1295 North  Level Estimated
11:02PM 43.4662 -122.1328 North  Level Estimated
11:03PM 43.5500 -122.1360 North  Level Estimated
11:04PM 43.6338 -122.1393 North  Level Estimated
11:05PM 43.7175 -122.1425 North  Level Estimated
11:06PM 43.8013 -122.1458 North  Level Estimated
11:07PM 43.8851 -122.1491 North  Level Estimated
11:08PM 43.9689 -122.1524 North  Level Estimated
11:09PM 44.0527 -122.1557 North  Level Estimated
11:10PM 44.1364 -122.1590 North  Level Estimated
11:11PM 44.2202 -122.1624 North  Level Estimated
11:12PM 44.3040 -122.1657 North  Level Estimated
11:13PM 44.3878 -122.1691 North  Level Estimated
11:14PM 44.4715 -122.1724 North  Level Estimated
11:15PM 44.5553 -122.1758 North  Level Estimated
11:16PM 44.6391 -122.1791 North  Level Estimated
11:17PM 44.7229 -122.1825 North  Level Estimated
11:18PM 44.8067 -122.1859 North  Level Estimated
11:19PM 44.8904 -122.1893 North  Level Estimated
11:20PM 44.9742 -122.1927 North  Level Estimated
11:21PM 45.0580 -122.1961 North  Level Estimated
11:22PM 45.1418 -122.1996 North  Level Estimated
11:23PM 45.2256 -122.2030 North  Level Estimated
11:24PM 45.3093 -122.2065 North  Level Estimated
11:25PM 45.3931 -122.2099 North  Level Estimated
11:26PM 45.4769 -122.2134 North  Level Estimated
11:27PM 45.5607 -122.2169 North  Level Estimated
11:28PM 45.6445 -122.2204 North  Level Estimated
11:29PM 45.7282 -122.2239 North  Level Estimated
11:30PM 45.8120 -122.2274 North  Level Estimated
11:31PM 45.8958 -122.2310 North  Level Estimated
11:32PM 45.9796 -122.2345 North  Level Estimated
11:33PM 46.0634 -122.2381 North  Level Estimated
11:34PM 46.1471 -122.2416 North  Level Estimated
11:35PM 46.2309 -122.2452 North  Level Estimated
11:36PM 46.3147 -122.2488 North  Level Estimated
11:37PM 46.3985 -122.2524 North  Level Estimated
11:38PM 46.4823 -122.2560 North  Level Estimated
11:39PM 46.5661 -122.2596 North  Level Estimated
11:40PM 46.6498 -122.2632 North  Level Estimated
11:41PM 46.7336 -122.2668 North  Level Estimated
11:42PM 46.8174 -122.2705 North  Level Estimated
11:43PM 46.9012 -122.2741 North  Level Estimated
11:44PM 46.9850 -122.2778 North  Level Estimated
11:45PM 47.0687 -122.2815 North  Level Estimated
11:46PM 47.1525 -122.2852 North  Level Estimated
11:47PM 47.2363 -122.2889 North  Level Estimated
11:48PM 47.3201 -122.2926 North  Level Estimated